sensor_id;sensor_type;location;lat;lon;timestamp;P1;durP1;ratioP1;P2;durP2;ratioP2
68192;SDS011;55012;47.562;18.414;2024-03-08T00:00:02;14.15;;;7.60;;
68192;SDS011;55012;47.562;18.414;2024-03-08T00:02:37;15.32;;;7.55;;
68192;SDS011;55012;47.562;18.414;2024-03-08T00:05:06;15.32;;;8.02;;
68192;SDS011;55012;47.562;18.414;2024-03-08T00:07:36;17.27;;;8.07;;
68192;SDS011;55012;47.562;18.414;2024-03-08T00:10:02;16.05;;;7.80;;
68192;SDS011;55012;47.562;18.414;2024-03-08T00:12:32;14.63;;;7.47;;
68192;SDS011;55012;47.562;18.414;2024-03-08T00:14:57;14.90;;;7.50;;
68192;SDS011;55012;47.562;18.414;2024-03-08T00:17:23;14.65;;;7.43;;
68192;SDS011;55012;47.562;18.414;2024-03-08T00:19:49;14.65;;;7.32;;
68192;SDS011;55012;47.562;18.414;2024-03-08T00:22:17;10.77;;;6.30;;
68192;SDS011;55012;47.562;18.414;2024-03-08T00:24:43;11.40;;;6.15;;
68192;SDS011;55012;47.562;18.414;2024-03-08T00:27:08;10.55;;;5.90;;
68192;SDS011;55012;47.562;18.414;2024-03-08T00:29:34;9.73;;;5.32;;
68192;SDS011;55012;47.562;18.414;2024-03-08T00:32:00;10.60;;;5.68;;
68192;SDS011;55012;47.562;18.414;2024-03-08T00:34:26;10.57;;;5.30;;
68192;SDS011;55012;47.562;18.414;2024-03-08T00:36:51;9.82;;;4.90;;
68192;SDS011;55012;47.562;18.414;2024-03-08T00:39:17;8.82;;;4.70;;
68192;SDS011;55012;47.562;18.414;2024-03-08T00:41:44;8.73;;;4.43;;
68192;SDS011;55012;47.562;18.414;2024-03-08T00:44:10;8.25;;;4.88;;
68192;SDS011;55012;47.562;18.414;2024-03-08T00:46:36;8.30;;;4.50;;
68192;SDS011;55012;47.562;18.414;2024-03-08T00:49:01;7.90;;;4.47;;
68192;SDS011;55012;47.562;18.414;2024-03-08T00:51:26;7.80;;;4.35;;
68192;SDS011;55012;47.562;18.414;2024-03-08T00:53:52;6.45;;;3.97;;
68192;SDS011;55012;47.562;18.414;2024-03-08T00:56:17;7.43;;;4.30;;
68192;SDS011;55012;47.562;18.414;2024-03-08T00:58:42;6.82;;;4.10;;
68192;SDS011;55012;47.562;18.414;2024-03-08T01:01:08;11.77;;;5.55;;
68192;SDS011;55012;47.562;18.414;2024-03-08T01:03:34;7.68;;;4.53;;
68192;SDS011;55012;47.562;18.414;2024-03-08T01:06:00;9.00;;;5.20;;
68192;SDS011;55012;47.562;18.414;2024-03-08T01:08:26;9.70;;;5.70;;
68192;SDS011;55012;47.562;18.414;2024-03-08T01:10:52;13.55;;;6.18;;
68192;SDS011;55012;47.562;18.414;2024-03-08T01:13:17;13.25;;;6.30;;
68192;SDS011;55012;47.562;18.414;2024-03-08T01:15:44;11.80;;;6.43;;
68192;SDS011;55012;47.562;18.414;2024-03-08T01:18:10;11.63;;;6.57;;
68192;SDS011;55012;47.562;18.414;2024-03-08T01:20:35;11.93;;;6.25;;
68192;SDS011;55012;47.562;18.414;2024-03-08T01:23:01;12.57;;;6.70;;
68192;SDS011;55012;47.562;18.414;2024-03-08T01:25:26;12.80;;;6.90;;
68192;SDS011;55012;47.562;18.414;2024-03-08T01:27:52;12.40;;;6.95;;
68192;SDS011;55012;47.562;18.414;2024-03-08T01:30:18;12.32;;;6.82;;
68192;SDS011;55012;47.562;18.414;2024-03-08T01:32:44;12.27;;;7.15;;
68192;SDS011;55012;47.562;18.414;2024-03-08T01:35:09;13.77;;;7.13;;
68192;SDS011;55012;47.562;18.414;2024-03-08T01:37:35;11.25;;;6.40;;
68192;SDS011;55012;47.562;18.414;2024-03-08T01:40:01;12.65;;;6.93;;
68192;SDS011;55012;47.562;18.414;2024-03-08T01:42:28;13.60;;;7.35;;
68192;SDS011;55012;47.562;18.414;2024-03-08T01:44:53;12.20;;;6.80;;
68192;SDS011;55012;47.562;18.414;2024-03-08T01:47:19;12.77;;;7.22;;
68192;SDS011;55012;47.562;18.414;2024-03-08T01:49:47;14.77;;;7.63;;
68192;SDS011;55012;47.562;18.414;2024-03-08T01:52:16;17.00;;;8.48;;
68192;SDS011;55012;47.562;18.414;2024-03-08T01:54:45;14.98;;;8.30;;
68192;SDS011;55012;47.562;18.414;2024-03-08T01:57:11;15.88;;;7.80;;
68192;SDS011;55012;47.562;18.414;2024-03-08T01:59:37;15.07;;;8.13;;
68192;SDS011;55012;47.562;18.414;2024-03-08T02:02:03;15.25;;;7.82;;
68192;SDS011;55012;47.562;18.414;2024-03-08T02:04:31;16.52;;;8.00;;
68192;SDS011;55012;47.562;18.414;2024-03-08T02:06:57;16.48;;;7.93;;
68192;SDS011;55012;47.562;18.414;2024-03-08T02:09:25;17.05;;;8.93;;
68192;SDS011;55012;47.562;18.414;2024-03-08T02:11:50;18.73;;;9.05;;
68192;SDS011;55012;47.562;18.414;2024-03-08T02:14:19;17.35;;;8.80;;
68192;SDS011;55012;47.562;18.414;2024-03-08T02:16:44;20.95;;;9.98;;
68192;SDS011;55012;47.562;18.414;2024-03-08T02:19:10;19.35;;;10.10;;
68192;SDS011;55012;47.562;18.414;2024-03-08T02:21:35;19.92;;;9.55;;
68192;SDS011;55012;47.562;18.414;2024-03-08T02:24:02;20.60;;;10.40;;
68192;SDS011;55012;47.562;18.414;2024-03-08T02:26:28;21.33;;;9.80;;
68192;SDS011;55012;47.562;18.414;2024-03-08T02:28:53;22.00;;;10.23;;
68192;SDS011;55012;47.562;18.414;2024-03-08T02:31:19;23.65;;;10.93;;
68192;SDS011;55012;47.562;18.414;2024-03-08T02:33:44;22.50;;;10.60;;
68192;SDS011;55012;47.562;18.414;2024-03-08T02:36:12;24.08;;;10.57;;
68192;SDS011;55012;47.562;18.414;2024-03-08T02:38:38;21.85;;;10.63;;
68192;SDS011;55012;47.562;18.414;2024-03-08T02:41:05;24.35;;;11.15;;
68192;SDS011;55012;47.562;18.414;2024-03-08T02:43:31;23.10;;;10.80;;
68192;SDS011;55012;47.562;18.414;2024-03-08T02:45:56;21.75;;;10.88;;
68192;SDS011;55012;47.562;18.414;2024-03-08T02:48:22;23.02;;;11.23;;
68192;SDS011;55012;47.562;18.414;2024-03-08T02:50:47;24.58;;;11.82;;
68192;SDS011;55012;47.562;18.414;2024-03-08T02:53:13;25.88;;;11.50;;
68192;SDS011;55012;47.562;18.414;2024-03-08T02:55:39;25.27;;;11.15;;
68192;SDS011;55012;47.562;18.414;2024-03-08T02:58:05;26.63;;;11.55;;
68192;SDS011;55012;47.562;18.414;2024-03-08T03:00:35;27.92;;;12.07;;
68192;SDS011;55012;47.562;18.414;2024-03-08T03:03:00;26.80;;;12.02;;
68192;SDS011;55012;47.562;18.414;2024-03-08T03:05:28;25.50;;;11.82;;
68192;SDS011;55012;47.562;18.414;2024-03-08T03:07:58;26.13;;;11.98;;
68192;SDS011;55012;47.562;18.414;2024-03-08T03:10:24;29.52;;;11.80;;
68192;SDS011;55012;47.562;18.414;2024-03-08T03:12:50;25.67;;;11.57;;
68192;SDS011;55012;47.562;18.414;2024-03-08T03:15:16;24.85;;;11.50;;
68192;SDS011;55012;47.562;18.414;2024-03-08T03:17:46;27.02;;;12.43;;
68192;SDS011;55012;47.562;18.414;2024-03-08T03:20:12;24.40;;;11.93;;
68192;SDS011;55012;47.562;18.414;2024-03-08T03:22:39;27.67;;;12.05;;
68192;SDS011;55012;47.562;18.414;2024-03-08T03:25:06;26.67;;;11.93;;
68192;SDS011;55012;47.562;18.414;2024-03-08T03:27:34;26.67;;;11.77;;
68192;SDS011;55012;47.562;18.414;2024-03-08T03:30:00;30.75;;;11.93;;
68192;SDS011;55012;47.562;18.414;2024-03-08T03:32:45;27.48;;;11.73;;
68192;SDS011;55012;47.562;18.414;2024-03-08T03:35:12;30.80;;;12.48;;
68192;SDS011;55012;47.562;18.414;2024-03-08T03:37:39;25.98;;;12.15;;
68192;SDS011;55012;47.562;18.414;2024-03-08T03:40:07;26.02;;;12.20;;
68192;SDS011;55012;47.562;18.414;2024-03-08T03:42:33;30.83;;;12.55;;
68192;SDS011;55012;47.562;18.414;2024-03-08T03:44:59;27.73;;;12.88;;
68192;SDS011;55012;47.562;18.414;2024-03-08T03:47:24;29.65;;;12.82;;
68192;SDS011;55012;47.562;18.414;2024-03-08T03:49:52;29.77;;;13.48;;
68192;SDS011;55012;47.562;18.414;2024-03-08T03:52:18;32.63;;;12.95;;
68192;SDS011;55012;47.562;18.414;2024-03-08T03:54:44;27.95;;;12.38;;
68192;SDS011;55012;47.562;18.414;2024-03-08T03:57:09;27.98;;;12.70;;
68192;SDS011;55012;47.562;18.414;2024-03-08T03:59:34;28.13;;;12.63;;
68192;SDS011;55012;47.562;18.414;2024-03-08T04:01:59;30.92;;;12.85;;
68192;SDS011;55012;47.562;18.414;2024-03-08T04:04:25;31.05;;;13.15;;
68192;SDS011;55012;47.562;18.414;2024-03-08T04:06:50;30.45;;;13.13;;
68192;SDS011;55012;47.562;18.414;2024-03-08T04:09:16;31.20;;;13.15;;
68192;SDS011;55012;47.562;18.414;2024-03-08T04:11:44;31.55;;;13.82;;
68192;SDS011;55012;47.562;18.414;2024-03-08T04:14:09;33.72;;;13.80;;
68192;SDS011;55012;47.562;18.414;2024-03-08T04:16:35;34.75;;;13.93;;
68192;SDS011;55012;47.562;18.414;2024-03-08T04:19:01;31.95;;;13.82;;
68192;SDS011;55012;47.562;18.414;2024-03-08T04:21:29;34.38;;;14.55;;
68192;SDS011;55012;47.562;18.414;2024-03-08T04:23:55;30.58;;;14.05;;
68192;SDS011;55012;47.562;18.414;2024-03-08T04:26:21;31.65;;;13.88;;
68192;SDS011;55012;47.562;18.414;2024-03-08T04:28:46;31.35;;;14.20;;
68192;SDS011;55012;47.562;18.414;2024-03-08T04:31:12;36.35;;;14.88;;
68192;SDS011;55012;47.562;18.414;2024-03-08T04:33:37;34.67;;;15.10;;
68192;SDS011;55012;47.562;18.414;2024-03-08T04:36:03;35.65;;;15.02;;
68192;SDS011;55012;47.562;18.414;2024-03-08T04:38:29;32.88;;;14.60;;
68192;SDS011;55012;47.562;18.414;2024-03-08T04:40:55;38.47;;;14.93;;
68192;SDS011;55012;47.562;18.414;2024-03-08T04:43:21;35.38;;;15.15;;
68192;SDS011;55012;47.562;18.414;2024-03-08T04:45:50;35.45;;;14.98;;
68192;SDS011;55012;47.562;18.414;2024-03-08T04:48:16;38.63;;;15.93;;
68192;SDS011;55012;47.562;18.414;2024-03-08T04:50:41;42.10;;;17.05;;
68192;SDS011;55012;47.562;18.414;2024-03-08T04:53:06;39.72;;;16.10;;
68192;SDS011;55012;47.562;18.414;2024-03-08T04:55:33;36.65;;;15.73;;
68192;SDS011;55012;47.562;18.414;2024-03-08T04:57:59;41.70;;;17.52;;
68192;SDS011;55012;47.562;18.414;2024-03-08T05:00:24;40.28;;;16.50;;
68192;SDS011;55012;47.562;18.414;2024-03-08T05:02:50;41.25;;;17.05;;
68192;SDS011;55012;47.562;18.414;2024-03-08T05:05:18;39.92;;;17.13;;
68192;SDS011;55012;47.562;18.414;2024-03-08T05:07:43;46.17;;;17.77;;
68192;SDS011;55012;47.562;18.414;2024-03-08T05:10:10;43.35;;;18.55;;
68192;SDS011;55012;47.562;18.414;2024-03-08T05:12:36;45.50;;;18.55;;
68192;SDS011;55012;47.562;18.414;2024-03-08T05:15:03;44.58;;;18.08;;
68192;SDS011;55012;47.562;18.414;2024-03-08T05:17:30;43.80;;;17.90;;
68192;SDS011;55012;47.562;18.414;2024-03-08T05:19:55;43.78;;;18.38;;
68192;SDS011;55012;47.562;18.414;2024-03-08T05:22:20;44.40;;;17.65;;
68192;SDS011;55012;47.562;18.414;2024-03-08T05:24:46;41.10;;;17.40;;
68192;SDS011;55012;47.562;18.414;2024-03-08T05:27:11;44.47;;;17.95;;
68192;SDS011;55012;47.562;18.414;2024-03-08T05:29:38;44.13;;;17.42;;
68192;SDS011;55012;47.562;18.414;2024-03-08T05:32:03;38.65;;;17.45;;
68192;SDS011;55012;47.562;18.414;2024-03-08T05:34:29;47.65;;;18.92;;
68192;SDS011;55012;47.562;18.414;2024-03-08T05:36:54;48.85;;;19.00;;
68192;SDS011;55012;47.562;18.414;2024-03-08T05:39:20;49.45;;;20.17;;
68192;SDS011;55012;47.562;18.414;2024-03-08T05:41:45;58.67;;;20.83;;
68192;SDS011;55012;47.562;18.414;2024-03-08T05:44:11;52.90;;;21.15;;
68192;SDS011;55012;47.562;18.414;2024-03-08T05:46:37;55.53;;;21.20;;
68192;SDS011;55012;47.562;18.414;2024-03-08T05:49:03;53.00;;;21.83;;
68192;SDS011;55012;47.562;18.414;2024-03-08T05:51:34;56.03;;;21.77;;
68192;SDS011;55012;47.562;18.414;2024-03-08T05:54:01;53.70;;;22.42;;
68192;SDS011;55012;47.562;18.414;2024-03-08T05:56:28;52.83;;;21.15;;
68192;SDS011;55012;47.562;18.414;2024-03-08T05:58:54;55.40;;;21.92;;
68192;SDS011;55012;47.562;18.414;2024-03-08T06:01:19;54.58;;;21.50;;
68192;SDS011;55012;47.562;18.414;2024-03-08T06:03:44;56.42;;;23.23;;
68192;SDS011;55012;47.562;18.414;2024-03-08T06:06:13;60.80;;;22.27;;
68192;SDS011;55012;47.562;18.414;2024-03-08T06:08:39;56.80;;;22.55;;
68192;SDS011;55012;47.562;18.414;2024-03-08T06:11:05;56.42;;;22.23;;
68192;SDS011;55012;47.562;18.414;2024-03-08T06:13:31;58.65;;;24.02;;
68192;SDS011;55012;47.562;18.414;2024-03-08T06:15:57;57.28;;;22.30;;
68192;SDS011;55012;47.562;18.414;2024-03-08T06:18:22;61.47;;;23.55;;
68192;SDS011;55012;47.562;18.414;2024-03-08T06:20:47;56.85;;;23.90;;
68192;SDS011;55012;47.562;18.414;2024-03-08T06:23:13;57.40;;;22.67;;
68192;SDS011;55012;47.562;18.414;2024-03-08T06:25:42;61.20;;;22.92;;
68192;SDS011;55012;47.562;18.414;2024-03-08T06:28:08;58.70;;;22.25;;
68192;SDS011;55012;47.562;18.414;2024-03-08T06:30:34;58.80;;;22.90;;
68192;SDS011;55012;47.562;18.414;2024-03-08T06:32:59;60.50;;;22.83;;
68192;SDS011;55012;47.562;18.414;2024-03-08T06:35:25;58.75;;;23.55;;
68192;SDS011;55012;47.562;18.414;2024-03-08T06:37:50;65.97;;;23.23;;
68192;SDS011;55012;47.562;18.414;2024-03-08T06:40:16;56.90;;;22.25;;
68192;SDS011;55012;47.562;18.414;2024-03-08T06:42:41;59.10;;;22.33;;
68192;SDS011;55012;47.562;18.414;2024-03-08T06:45:07;57.95;;;22.80;;
68192;SDS011;55012;47.562;18.414;2024-03-08T06:47:34;62.25;;;22.42;;
68192;SDS011;55012;47.562;18.414;2024-03-08T06:49:59;58.58;;;22.95;;
68192;SDS011;55012;47.562;18.414;2024-03-08T06:52:25;57.97;;;22.60;;
68192;SDS011;55012;47.562;18.414;2024-03-08T06:54:50;59.22;;;22.83;;
68192;SDS011;55012;47.562;18.414;2024-03-08T06:57:17;57.80;;;22.20;;
68192;SDS011;55012;47.562;18.414;2024-03-08T06:59:43;60.70;;;22.05;;
68192;SDS011;55012;47.562;18.414;2024-03-08T07:02:09;62.55;;;23.50;;
68192;SDS011;55012;47.562;18.414;2024-03-08T07:04:35;62.90;;;22.60;;
68192;SDS011;55012;47.562;18.414;2024-03-08T07:07:03;55.53;;;22.42;;
68192;SDS011;55012;47.562;18.414;2024-03-08T07:09:29;62.22;;;24.73;;
68192;SDS011;55012;47.562;18.414;2024-03-08T07:11:54;65.78;;;23.80;;
68192;SDS011;55012;47.562;18.414;2024-03-08T07:14:23;63.35;;;23.20;;
68192;SDS011;55012;47.562;18.414;2024-03-08T07:16:49;63.33;;;24.02;;
68192;SDS011;55012;47.562;18.414;2024-03-08T07:19:16;58.10;;;22.48;;
68192;SDS011;55012;47.562;18.414;2024-03-08T07:21:45;62.20;;;23.17;;
68192;SDS011;55012;47.562;18.414;2024-03-08T07:24:12;61.88;;;23.60;;
68192;SDS011;55012;47.562;18.414;2024-03-08T07:27:06;62.22;;;24.85;;
68192;SDS011;55012;47.562;18.414;2024-03-08T07:29:32;70.03;;;24.92;;
68192;SDS011;55012;47.562;18.414;2024-03-08T07:31:59;64.45;;;25.48;;
68192;SDS011;55012;47.562;18.414;2024-03-08T07:34:43;61.03;;;23.88;;
68192;SDS011;55012;47.562;18.414;2024-03-08T07:37:08;61.22;;;24.30;;
68192;SDS011;55012;47.562;18.414;2024-03-08T07:39:36;61.90;;;24.65;;
68192;SDS011;55012;47.562;18.414;2024-03-08T07:42:02;65.10;;;25.77;;
68192;SDS011;55012;47.562;18.414;2024-03-08T07:44:28;64.07;;;24.17;;
68192;SDS011;55012;47.562;18.414;2024-03-08T07:46:54;64.45;;;24.77;;
68192;SDS011;55012;47.562;18.414;2024-03-08T07:49:20;60.30;;;23.92;;
68192;SDS011;55012;47.562;18.414;2024-03-08T07:51:45;63.00;;;24.77;;
68192;SDS011;55012;47.562;18.414;2024-03-08T07:54:10;61.28;;;24.15;;
68192;SDS011;55012;47.562;18.414;2024-03-08T07:56:36;65.25;;;24.83;;
68192;SDS011;55012;47.562;18.414;2024-03-08T07:59:01;61.80;;;24.67;;
68192;SDS011;55012;47.562;18.414;2024-03-08T08:01:29;70.78;;;24.90;;
68192;SDS011;55012;47.562;18.414;2024-03-08T08:03:55;64.85;;;24.52;;
68192;SDS011;55012;47.562;18.414;2024-03-08T08:06:21;72.82;;;28.00;;
68192;SDS011;55012;47.562;18.414;2024-03-08T08:08:47;72.55;;;28.10;;
68192;SDS011;55012;47.562;18.414;2024-03-08T08:11:12;68.00;;;26.20;;
68192;SDS011;55012;47.562;18.414;2024-03-08T08:13:37;68.57;;;25.45;;
68192;SDS011;55012;47.562;18.414;2024-03-08T08:16:04;71.03;;;26.50;;
68192;SDS011;55012;47.562;18.414;2024-03-08T08:18:31;63.55;;;25.17;;
68192;SDS011;55012;47.562;18.414;2024-03-08T08:20:58;70.18;;;25.60;;
68192;SDS011;55012;47.562;18.414;2024-03-08T08:23:25;68.68;;;25.83;;
68192;SDS011;55012;47.562;18.414;2024-03-08T08:25:51;61.63;;;24.17;;
68192;SDS011;55012;47.562;18.414;2024-03-08T08:28:16;60.58;;;24.15;;
68192;SDS011;55012;47.562;18.414;2024-03-08T08:30:43;57.58;;;24.10;;
68192;SDS011;55012;47.562;18.414;2024-03-08T08:33:08;64.82;;;24.90;;
68192;SDS011;55012;47.562;18.414;2024-03-08T08:35:34;61.13;;;24.50;;
68192;SDS011;55012;47.562;18.414;2024-03-08T08:37:59;63.05;;;24.73;;
68192;SDS011;55012;47.562;18.414;2024-03-08T08:40:25;61.78;;;25.05;;
68192;SDS011;55012;47.562;18.414;2024-03-08T08:42:50;59.85;;;23.67;;
68192;SDS011;55012;47.562;18.414;2024-03-08T08:45:17;61.45;;;24.50;;
68192;SDS011;55012;47.562;18.414;2024-03-08T08:47:44;58.45;;;23.98;;
68192;SDS011;55012;47.562;18.414;2024-03-08T08:50:10;56.88;;;22.75;;
68192;SDS011;55012;47.562;18.414;2024-03-08T08:52:39;62.05;;;24.65;;
68192;SDS011;55012;47.562;18.414;2024-03-08T08:55:05;57.92;;;23.15;;
68192;SDS011;55012;47.562;18.414;2024-03-08T08:57:31;53.95;;;23.23;;
68192;SDS011;55012;47.562;18.414;2024-03-08T08:59:58;54.55;;;21.85;;
68192;SDS011;55012;47.562;18.414;2024-03-08T09:02:23;52.10;;;21.98;;
68192;SDS011;55012;47.562;18.414;2024-03-08T09:04:50;55.67;;;22.30;;
68192;SDS011;55012;47.562;18.414;2024-03-08T09:07:16;54.50;;;21.52;;
68192;SDS011;55012;47.562;18.414;2024-03-08T09:09:43;50.22;;;21.67;;
68192;SDS011;55012;47.562;18.414;2024-03-08T09:12:09;51.67;;;22.17;;
68192;SDS011;55012;47.562;18.414;2024-03-08T09:14:38;51.92;;;22.00;;
68192;SDS011;55012;47.562;18.414;2024-03-08T09:17:06;49.08;;;21.85;;
68192;SDS011;55012;47.562;18.414;2024-03-08T09:19:33;52.30;;;22.63;;
68192;SDS011;55012;47.562;18.414;2024-03-08T09:21:59;53.60;;;22.58;;
68192;SDS011;55012;47.562;18.414;2024-03-08T09:24:24;49.22;;;21.02;;
68192;SDS011;55012;47.562;18.414;2024-03-08T09:26:49;54.72;;;22.48;;
68192;SDS011;55012;47.562;18.414;2024-03-08T09:29:15;54.67;;;23.25;;
68192;SDS011;55012;47.562;18.414;2024-03-08T09:31:41;55.88;;;23.25;;
68192;SDS011;55012;47.562;18.414;2024-03-08T09:34:06;52.17;;;22.48;;
68192;SDS011;55012;47.562;18.414;2024-03-08T09:36:33;54.47;;;22.73;;
68192;SDS011;55012;47.562;18.414;2024-03-08T09:38:59;50.83;;;22.23;;
68192;SDS011;55012;47.562;18.414;2024-03-08T09:41:25;54.97;;;22.10;;
68192;SDS011;55012;47.562;18.414;2024-03-08T09:43:51;58.25;;;22.75;;
68192;SDS011;55012;47.562;18.414;2024-03-08T09:46:17;58.50;;;23.58;;
68192;SDS011;55012;47.562;18.414;2024-03-08T09:48:44;57.38;;;22.70;;
68192;SDS011;55012;47.562;18.414;2024-03-08T09:51:11;56.72;;;23.05;;
68192;SDS011;55012;47.562;18.414;2024-03-08T09:53:40;48.28;;;21.55;;
68192;SDS011;55012;47.562;18.414;2024-03-08T09:56:07;53.15;;;21.08;;
68192;SDS011;55012;47.562;18.414;2024-03-08T09:58:33;50.95;;;21.17;;
68192;SDS011;55012;47.562;18.414;2024-03-08T10:00:58;48.33;;;20.90;;
68192;SDS011;55012;47.562;18.414;2024-03-08T10:03:27;53.67;;;22.70;;
68192;SDS011;55012;47.562;18.414;2024-03-08T10:05:53;49.22;;;20.98;;
68192;SDS011;55012;47.562;18.414;2024-03-08T10:08:21;47.25;;;20.42;;
68192;SDS011;55012;47.562;18.414;2024-03-08T10:10:47;47.15;;;20.30;;
68192;SDS011;55012;47.562;18.414;2024-03-08T10:13:12;45.28;;;20.50;;
68192;SDS011;55012;47.562;18.414;2024-03-08T10:15:39;43.17;;;19.73;;
68192;SDS011;55012;47.562;18.414;2024-03-08T10:18:05;43.30;;;19.55;;
68192;SDS011;55012;47.562;18.414;2024-03-08T10:20:32;41.97;;;18.77;;
68192;SDS011;55012;47.562;18.414;2024-03-08T10:23:00;36.88;;;17.98;;
68192;SDS011;55012;47.562;18.414;2024-03-08T10:25:28;38.75;;;16.75;;
68192;SDS011;55012;47.562;18.414;2024-03-08T10:27:55;36.28;;;16.73;;
68192;SDS011;55012;47.562;18.414;2024-03-08T10:30:21;33.95;;;15.20;;
68192;SDS011;55012;47.562;18.414;2024-03-08T10:32:47;32.17;;;14.75;;
68192;SDS011;55012;47.562;18.414;2024-03-08T10:35:12;33.85;;;16.35;;
68192;SDS011;55012;47.562;18.414;2024-03-08T10:37:44;40.97;;;17.95;;
68192;SDS011;55012;47.562;18.414;2024-03-08T10:40:18;39.47;;;17.45;;
68192;SDS011;55012;47.562;18.414;2024-03-08T10:42:57;37.42;;;17.25;;
68192;SDS011;55012;47.562;18.414;2024-03-08T10:48:04;36.65;;;16.85;;
68192;SDS011;55012;47.562;18.414;2024-03-08T10:50:41;40.92;;;17.40;;
68192;SDS011;55012;47.562;18.414;2024-03-08T10:53:10;38.63;;;17.10;;
68192;SDS011;55012;47.562;18.414;2024-03-08T10:55:39;42.90;;;18.45;;
68192;SDS011;55012;47.562;18.414;2024-03-08T10:58:08;40.60;;;18.02;;
68192;SDS011;55012;47.562;18.414;2024-03-08T11:00:33;45.90;;;19.83;;
68192;SDS011;55012;47.562;18.414;2024-03-08T11:02:59;45.08;;;19.05;;
68192;SDS011;55012;47.562;18.414;2024-03-08T11:05:32;48.13;;;19.67;;
68192;SDS011;55012;47.562;18.414;2024-03-08T11:08:03;53.08;;;20.65;;
68192;SDS011;55012;47.562;18.414;2024-03-08T11:10:47;49.15;;;20.85;;
68192;SDS011;55012;47.562;18.414;2024-03-08T11:16:02;44.72;;;20.08;;
68192;SDS011;55012;47.562;18.414;2024-03-08T11:18:32;48.75;;;20.70;;
68192;SDS011;55012;47.562;18.414;2024-03-08T11:21:03;50.10;;;21.05;;
68192;SDS011;55012;47.562;18.414;2024-03-08T11:23:32;52.05;;;20.67;;
68192;SDS011;55012;47.562;18.414;2024-03-08T11:25:58;56.30;;;21.20;;
68192;SDS011;55012;47.562;18.414;2024-03-08T11:28:24;57.92;;;22.60;;
68192;SDS011;55012;47.562;18.414;2024-03-08T11:33:24;54.22;;;22.20;;
68192;SDS011;55012;47.562;18.414;2024-03-08T11:35:51;56.65;;;22.17;;
68192;SDS011;55012;47.562;18.414;2024-03-08T11:38:17;61.92;;;23.95;;
68192;SDS011;55012;47.562;18.414;2024-03-08T11:40:45;64.20;;;25.33;;
68192;SDS011;55012;47.562;18.414;2024-03-08T11:43:15;65.32;;;25.60;;
68192;SDS011;55012;47.562;18.414;2024-03-08T11:45:41;60.03;;;23.42;;
68192;SDS011;55012;47.562;18.414;2024-03-08T11:48:07;54.50;;;21.90;;
68192;SDS011;55012;47.562;18.414;2024-03-08T11:50:32;52.22;;;21.25;;
68192;SDS011;55012;47.562;18.414;2024-03-08T11:53:01;49.58;;;20.17;;
68192;SDS011;55012;47.562;18.414;2024-03-08T11:55:33;47.15;;;19.48;;
68192;SDS011;55012;47.562;18.414;2024-03-08T11:58:04;49.78;;;20.50;;
68192;SDS011;55012;47.562;18.414;2024-03-08T12:00:33;47.17;;;20.00;;
68192;SDS011;55012;47.562;18.414;2024-03-08T12:03:06;41.97;;;19.52;;
68192;SDS011;55012;47.562;18.414;2024-03-08T12:05:33;44.30;;;19.10;;
68192;SDS011;55012;47.562;18.414;2024-03-08T12:07:59;47.20;;;19.77;;
68192;SDS011;55012;47.562;18.414;2024-03-08T12:10:25;44.65;;;19.67;;
68192;SDS011;55012;47.562;18.414;2024-03-08T12:12:51;43.55;;;19.30;;
68192;SDS011;55012;47.562;18.414;2024-03-08T12:15:19;43.15;;;18.63;;
68192;SDS011;55012;47.562;18.414;2024-03-08T12:17:49;36.28;;;16.80;;
68192;SDS011;55012;47.562;18.414;2024-03-08T12:22:46;39.08;;;17.80;;
68192;SDS011;55012;47.562;18.414;2024-03-08T12:25:12;35.45;;;17.35;;
68192;SDS011;55012;47.562;18.414;2024-03-08T12:27:42;34.85;;;16.85;;
68192;SDS011;55012;47.562;18.414;2024-03-08T12:30:18;34.88;;;17.00;;
68192;SDS011;55012;47.562;18.414;2024-03-08T12:32:48;35.47;;;16.60;;
68192;SDS011;55012;47.562;18.414;2024-03-08T12:35:25;38.30;;;17.02;;
68192;SDS011;55012;47.562;18.414;2024-03-08T12:37:55;38.28;;;17.48;;
68192;SDS011;55012;47.562;18.414;2024-03-08T12:40:25;38.78;;;18.10;;
68192;SDS011;55012;47.562;18.414;2024-03-08T12:42:52;34.90;;;16.88;;
68192;SDS011;55012;47.562;18.414;2024-03-08T12:45:18;41.47;;;18.63;;
68192;SDS011;55012;47.562;18.414;2024-03-08T12:47:43;38.33;;;17.13;;
68192;SDS011;55012;47.562;18.414;2024-03-08T12:50:09;38.63;;;16.98;;
68192;SDS011;55012;47.562;18.414;2024-03-08T12:52:35;39.22;;;17.63;;
68192;SDS011;55012;47.562;18.414;2024-03-08T12:55:01;36.53;;;17.40;;
68192;SDS011;55012;47.562;18.414;2024-03-08T12:57:27;39.80;;;18.05;;
68192;SDS011;55012;47.562;18.414;2024-03-08T12:59:53;38.70;;;17.77;;
68192;SDS011;55012;47.562;18.414;2024-03-08T13:02:19;39.55;;;18.27;;
68192;SDS011;55012;47.562;18.414;2024-03-08T13:04:45;43.03;;;18.15;;
68192;SDS011;55012;47.562;18.414;2024-03-08T13:07:10;40.63;;;18.25;;
68192;SDS011;55012;47.562;18.414;2024-03-08T13:09:36;39.83;;;19.38;;
68192;SDS011;55012;47.562;18.414;2024-03-08T13:12:02;38.90;;;17.77;;
68192;SDS011;55012;47.562;18.414;2024-03-08T13:14:28;41.85;;;18.42;;
68192;SDS011;55012;47.562;18.414;2024-03-08T13:16:56;40.08;;;18.48;;
68192;SDS011;55012;47.562;18.414;2024-03-08T13:19:24;40.10;;;18.95;;
68192;SDS011;55012;47.562;18.414;2024-03-08T13:21:53;42.22;;;19.85;;
68192;SDS011;55012;47.562;18.414;2024-03-08T13:24:18;39.58;;;18.05;;
68192;SDS011;55012;47.562;18.414;2024-03-08T13:26:44;42.85;;;19.30;;
68192;SDS011;55012;47.562;18.414;2024-03-08T13:29:10;42.30;;;20.02;;
68192;SDS011;55012;47.562;18.414;2024-03-08T13:31:35;43.75;;;19.98;;
68192;SDS011;55012;47.562;18.414;2024-03-08T13:34:01;41.65;;;19.95;;
68192;SDS011;55012;47.562;18.414;2024-03-08T13:36:26;45.70;;;20.77;;
68192;SDS011;55012;47.562;18.414;2024-03-08T13:39:00;45.20;;;19.95;;
68192;SDS011;55012;47.562;18.414;2024-03-08T13:41:25;48.40;;;21.98;;
68192;SDS011;55012;47.562;18.414;2024-03-08T13:43:51;48.33;;;21.35;;
68192;SDS011;55012;47.562;18.414;2024-03-08T13:46:17;44.83;;;20.27;;
68192;SDS011;55012;47.562;18.414;2024-03-08T13:48:42;44.50;;;21.55;;
68192;SDS011;55012;47.562;18.414;2024-03-08T13:51:08;49.20;;;20.88;;
68192;SDS011;55012;47.562;18.414;2024-03-08T13:53:40;47.55;;;21.42;;
68192;SDS011;55012;47.562;18.414;2024-03-08T13:56:05;49.83;;;22.45;;
68192;SDS011;55012;47.562;18.414;2024-03-08T13:58:31;53.38;;;21.15;;
68192;SDS011;55012;47.562;18.414;2024-03-08T14:00:56;48.50;;;21.45;;
68192;SDS011;55012;47.562;18.414;2024-03-08T14:03:22;48.25;;;21.73;;
68192;SDS011;55012;47.562;18.414;2024-03-08T14:05:49;50.67;;;21.55;;
68192;SDS011;55012;47.562;18.414;2024-03-08T14:08:14;48.05;;;21.40;;
68192;SDS011;55012;47.562;18.414;2024-03-08T14:10:41;48.15;;;21.88;;
68192;SDS011;55012;47.562;18.414;2024-03-08T14:13:07;45.72;;;20.60;;
68192;SDS011;55012;47.562;18.414;2024-03-08T14:15:33;45.63;;;21.20;;
68192;SDS011;55012;47.562;18.414;2024-03-08T14:17:59;45.45;;;20.60;;